Terminal Aerodrome Forecast
Issued by NWS

Home | Current Version | Previous Version | Text Only | Print | Product List | Glossary On
Versions: 1 2 3 4 5 6 7 8 9 10 11 12 13 14 15 16 17 18
930
FTUS43 KAPX 111739
TAFMBL
TAF
KMBL 111739Z 1118/1218 30007KT P6SM VCSH SCT027 OVC035
     FM112000 28007KT P6SM BKN035
     FM120800 29010G17KT P6SM BKN030
     FM121300 31011G19KT 2SM -SHSN OVC026
      AMD LTD TO CLD VIS AND WIND=

USA.gov is the U.S. government's official web portal to all federal, state and local government web resources and services.